createdAt,value
2022-11-23T00:01:22.615Z,6.50
2022-11-23T00:03:51.661Z,6.50
2022-11-23T00:06:19.630Z,6.50
2022-11-23T00:08:46.238Z,6.40
2022-11-23T00:11:13.598Z,6.50
2022-11-23T00:13:41.222Z,6.50
2022-11-23T00:16:30.440Z,6.50
2022-11-23T00:18:58.944Z,6.50
2022-11-23T00:21:27.054Z,6.40
2022-11-23T00:23:53.852Z,6.40
2022-11-23T00:26:22.892Z,6.40
2022-11-23T00:28:49.801Z,6.30
2022-11-23T00:31:21.101Z,6.30
2022-11-23T00:33:52.998Z,6.30
2022-11-23T00:36:20.372Z,6.20
2022-11-23T00:38:48.415Z,6.20
2022-11-23T00:41:21.266Z,6.20
2022-11-23T00:43:48.086Z,6.20
2022-11-23T00:46:22.982Z,6.20
2022-11-23T00:48:51.625Z,6.10
2022-11-23T00:51:20.837Z,6.20
2022-11-23T00:53:47.656Z,6.20
2022-11-23T00:56:14.374Z,6.20
2022-11-23T00:58:41.276Z,6.20
2022-11-23T01:01:10.427Z,6.20
2022-11-23T01:03:39.437Z,6.10
2022-11-23T01:06:11.558Z,6.10
2022-11-23T01:08:41.188Z,6.10
2022-11-23T01:11:10.535Z,6.10
2022-11-23T01:13:38.951Z,6.10
2022-11-23T01:16:10.156Z,6.10
2022-11-23T01:18:36.770Z,6.10
2022-11-23T01:21:05.829Z,6.10
2022-11-23T01:23:32.696Z,6.20
2022-11-23T01:26:05.640Z,6.20
2022-11-23T01:28:34.970Z,6.20
2022-11-23T01:31:07.167Z,6.20
2022-11-23T01:33:34.318Z,6.20
2022-11-23T01:36:00.996Z,6.20
2022-11-23T01:38:27.710Z,6.20
2022-11-23T01:40:56.880Z,6.20
2022-11-23T01:43:23.591Z,6.20
2022-11-23T01:45:52.945Z,6.20
2022-11-23T01:48:33.815Z,6.20
2022-11-23T01:51:05.541Z,6.20
2022-11-23T01:53:33.286Z,6.20
2022-11-23T01:56:02.509Z,6.20
2022-11-23T01:58:38.530Z,6.20
2022-11-23T02:01:06.569Z,6.20
2022-11-23T02:03:34.575Z,6.20
2022-11-23T02:06:04.854Z,6.20
2022-11-23T02:08:31.912Z,6.20
2022-11-23T02:11:02.059Z,6.20
2022-11-23T02:13:29.215Z,6.20
2022-11-23T02:15:59.820Z,6.10
2022-11-23T02:18:30.541Z,6.10
2022-11-23T02:21:02.442Z,6.10
2022-11-23T02:23:53.756Z,6.10
2022-11-23T02:26:33.226Z,6.10
2022-11-23T02:29:11.191Z,6.10
2022-11-23T02:31:37.865Z,6.10
2022-11-23T02:34:07.453Z,6.20
2022-11-23T02:36:39.821Z,6.10
2022-11-23T02:39:13.033Z,6.10
2022-11-23T02:41:48.650Z,6.10
2022-11-23T02:44:53.300Z,6.10
2022-11-23T02:47:20.057Z,6.10
2022-11-23T02:49:48.379Z,6.10
2022-11-23T02:52:18.521Z,6.10
2022-11-23T02:54:45.209Z,6.00
2022-11-23T02:57:11.855Z,6.10
2022-11-23T02:59:38.505Z,6.10
2022-11-23T03:02:05.900Z,6.10
2022-11-23T03:04:35.089Z,6.20
2022-11-23T03:07:01.819Z,6.20
2022-11-23T03:09:33.384Z,6.10
2022-11-23T03:12:00.276Z,6.10
2022-11-23T03:14:26.967Z,6.10
2022-11-23T03:16:56.159Z,6.20
2022-11-23T03:19:22.789Z,6.20
2022-11-23T03:21:49.415Z,6.20
2022-11-23T03:24:17.318Z,6.20
2022-11-23T03:26:44.046Z,6.20
2022-11-23T03:29:10.731Z,6.20
2022-11-23T03:31:37.395Z,6.20
2022-11-23T03:34:04.105Z,6.20
2022-11-23T03:36:30.821Z,6.20
2022-11-23T03:38:59.915Z,6.20
2022-11-23T03:41:28.937Z,6.20
2022-11-23T03:43:55.605Z,6.20
2022-11-23T03:46:22.354Z,6.20
2022-11-23T03:48:51.346Z,6.20
2022-11-23T03:51:20.238Z,6.20
2022-11-23T03:53:46.906Z,6.20
2022-11-23T03:56:15.720Z,6.20
2022-11-23T03:58:42.405Z,6.20
2022-11-23T04:01:09.139Z,6.20
2022-11-23T04:03:35.822Z,6.20
2022-11-23T04:06:02.545Z,6.20
2022-11-23T04:08:29.235Z,6.20
2022-11-23T04:10:59.813Z,6.10
2022-11-23T04:13:26.706Z,6.20
2022-11-23T04:15:53.454Z,6.10
2022-11-23T04:18:22.374Z,6.10
2022-11-23T04:20:49.030Z,6.10
2022-11-23T04:23:15.631Z,6.10
2022-11-23T04:25:42.924Z,6.10
2022-11-23T04:28:09.573Z,6.00
2022-11-23T04:30:36.215Z,6.00
2022-11-23T04:33:02.925Z,6.00
2022-11-23T04:35:29.634Z,6.00
2022-11-23T04:37:56.305Z,5.90
2022-11-23T04:40:25.201Z,6.00
2022-11-23T04:42:53.279Z,5.90
2022-11-23T04:45:21.163Z,6.00
2022-11-23T04:47:47.776Z,5.90
2022-11-23T04:50:16.893Z,5.90
2022-11-23T04:52:43.607Z,5.90
2022-11-23T04:55:10.270Z,5.90
2022-11-23T04:57:36.901Z,5.90
2022-11-23T05:00:04.538Z,5.90
2022-11-23T05:02:31.174Z,5.90
2022-11-23T05:04:57.935Z,5.90
2022-11-23T05:07:24.688Z,5.90
2022-11-23T05:09:51.330Z,5.80
2022-11-23T05:12:18.026Z,5.80
2022-11-23T05:14:44.734Z,5.80
2022-11-23T05:17:11.592Z,5.80
2022-11-23T05:19:40.767Z,5.80
2022-11-23T05:22:07.795Z,5.80
2022-11-23T05:24:34.509Z,5.70
2022-11-23T05:27:03.469Z,5.70
2022-11-23T05:29:32.597Z,5.70
2022-11-23T05:32:01.946Z,5.60
2022-11-23T05:34:28.660Z,5.60
2022-11-23T05:36:57.804Z,5.60
2022-11-23T05:39:24.801Z,5.60
2022-11-23T05:41:51.655Z,5.50
2022-11-23T05:44:18.279Z,5.50
2022-11-23T05:46:44.903Z,5.50
2022-11-23T05:49:14.011Z,5.50
2022-11-23T05:51:40.626Z,5.50
2022-11-23T05:54:07.292Z,5.50
2022-11-23T05:56:40.087Z,5.40
2022-11-23T05:59:07.947Z,5.40
2022-11-23T06:01:34.782Z,5.40
2022-11-23T06:04:03.817Z,5.40
2022-11-23T06:06:32.961Z,5.40
2022-11-23T06:08:59.735Z,5.40
2022-11-23T06:11:26.396Z,5.40
2022-11-23T06:13:55.487Z,5.40
2022-11-23T06:16:22.292Z,5.30
2022-11-23T06:18:48.923Z,5.40
2022-11-23T06:21:15.649Z,5.40
2022-11-23T06:23:42.241Z,5.40
2022-11-23T06:26:08.902Z,5.40
2022-11-23T06:28:37.004Z,5.30
2022-11-23T06:31:06.528Z,5.30
2022-11-23T06:33:35.912Z,5.30
2022-11-23T06:36:03.531Z,5.30
2022-11-23T06:38:30.654Z,5.30
2022-11-23T06:41:01.189Z,5.30
2022-11-23T06:43:28.750Z,5.30
2022-11-23T06:45:56.140Z,5.20
2022-11-23T06:48:23.529Z,5.30
2022-11-23T06:50:52.728Z,5.20
2022-11-23T06:53:19.386Z,5.20
2022-11-23T06:55:46.092Z,5.20
2022-11-23T06:58:12.813Z,5.20
2022-11-23T07:00:39.439Z,5.10
2022-11-23T07:03:06.093Z,5.10
2022-11-23T07:05:32.890Z,5.10
2022-11-23T07:07:59.579Z,5.10
2022-11-23T07:10:26.273Z,5.10
2022-11-23T07:12:53.008Z,5.10
2022-11-23T07:15:19.864Z,5.10
2022-11-23T07:17:48.967Z,5.10
2022-11-23T07:20:16.207Z,5.10
2022-11-23T07:22:42.908Z,5.10
2022-11-23T07:25:09.776Z,5.10
2022-11-23T07:27:36.447Z,5.10
2022-11-23T07:30:03.655Z,5.10
2022-11-23T07:32:32.914Z,5.20
2022-11-23T07:35:01.758Z,5.20
2022-11-23T07:37:28.607Z,5.30
2022-11-23T07:39:58.196Z,5.30
2022-11-23T07:42:39.781Z,5.40
2022-11-23T07:45:12.833Z,5.50
2022-11-23T07:47:39.909Z,5.60
2022-11-23T07:50:08.588Z,5.60
2022-11-23T07:52:38.251Z,5.60
2022-11-23T07:55:08.001Z,5.70
2022-11-23T07:57:34.730Z,5.70
2022-11-23T08:00:01.475Z,5.70
2022-11-23T08:02:30.545Z,5.80
2022-11-23T08:04:59.449Z,5.90
2022-11-23T08:07:26.232Z,6.00
2022-11-23T08:09:53.091Z,6.00
2022-11-23T08:12:19.947Z,6.10
2022-11-23T08:14:46.689Z,6.20
2022-11-23T08:17:15.687Z,6.20
2022-11-23T08:19:42.430Z,6.40
2022-11-23T08:22:15.509Z,6.50
2022-11-23T08:24:42.841Z,6.50
2022-11-23T08:27:09.716Z,6.70
2022-11-23T08:29:36.553Z,6.80
2022-11-23T08:32:03.341Z,7.00
2022-11-23T08:34:32.367Z,7.10
2022-11-23T08:36:59.113Z,7.20
2022-11-23T08:39:27.846Z,7.40
2022-11-23T08:41:54.647Z,7.50
2022-11-23T08:44:21.278Z,7.60
2022-11-23T08:46:50.848Z,7.60
2022-11-23T08:49:17.619Z,7.70
2022-11-23T08:51:49.723Z,7.80
2022-11-23T08:54:19.401Z,7.90
2022-11-23T08:56:46.189Z,8.00
2022-11-23T08:59:17.044Z,8.10
2022-11-23T09:01:45.056Z,8.10
2022-11-23T09:04:16.375Z,8.10
2022-11-23T09:06:45.988Z,8.20
2022-11-23T09:09:12.733Z,8.30
2022-11-23T09:11:39.511Z,8.30
2022-11-23T09:14:08.988Z,8.30
2022-11-23T09:16:37.735Z,8.40
2022-11-23T09:19:05.860Z,8.50
2022-11-23T09:21:35.575Z,8.60
2022-11-23T09:24:02.538Z,8.70
2022-11-23T09:26:30.481Z,8.70
2022-11-23T09:28:57.176Z,8.80
2022-11-23T09:31:23.869Z,8.90
2022-11-23T09:33:53.355Z,9.00
2022-11-23T09:36:20.005Z,9.20
2022-11-23T09:38:56.053Z,9.50
2022-11-23T09:41:54.434Z,9.80
2022-11-23T09:44:39.232Z,9.90
2022-11-23T09:47:20.491Z,10.00
2022-11-23T09:50:14.979Z,10.10
2022-11-23T09:52:44.617Z,10.40
2022-11-23T09:55:18.973Z,11.00
2022-11-23T09:57:48.175Z,11.20
2022-11-23T10:00:23.927Z,11.40
2022-11-23T10:02:50.747Z,11.70
2022-11-23T10:05:27.365Z,11.70
2022-11-23T10:08:20.908Z,11.80
2022-11-23T10:11:22.740Z,11.90
2022-11-23T10:14:07.059Z,12.30
2022-11-23T10:16:58.530Z,13.00
2022-11-23T10:19:45.580Z,13.80
2022-11-23T10:22:48.053Z,13.50
2022-11-23T10:25:19.656Z,13.60
2022-11-23T10:27:48.953Z,14.10
2022-11-23T10:30:17.859Z,13.80
2022-11-23T10:32:55.521Z,14.30
2022-11-23T10:35:30.728Z,14.70
2022-11-23T10:38:29.539Z,14.80
2022-11-23T10:41:12.316Z,14.80
2022-11-23T10:43:45.231Z,14.90
2022-11-23T10:46:32.321Z,14.50
2022-11-23T10:49:13.933Z,14.70
2022-11-23T10:51:48.394Z,15.10
2022-11-23T10:54:25.984Z,15.20
2022-11-23T10:56:58.942Z,15.80
2022-11-23T10:59:31.414Z,16.60
2022-11-23T11:02:13.527Z,17.10
2022-11-23T11:04:40.302Z,16.30
2022-11-23T11:07:24.558Z,16.40
2022-11-23T11:10:02.085Z,16.90
2022-11-23T11:12:33.448Z,17.00
2022-11-23T11:15:16.027Z,17.20
2022-11-23T11:17:44.977Z,17.40
2022-11-23T11:20:30.394Z,17.20
2022-11-23T11:23:04.049Z,17.10
2022-11-23T11:25:30.874Z,16.90
2022-11-23T11:27:58.640Z,17.40
2022-11-23T11:30:31.489Z,18.00
2022-11-23T11:33:26.391Z,18.50
2022-11-23T11:35:56.312Z,18.80
2022-11-23T11:38:27.496Z,19.00
2022-11-23T11:40:56.757Z,18.90
2022-11-23T11:43:34.999Z,18.90
2022-11-23T11:46:30.474Z,19.40
2022-11-23T11:49:13.456Z,19.40
2022-11-23T11:51:55.411Z,19.70
2022-11-23T11:54:49.889Z,19.90
2022-11-23T11:57:21.705Z,19.50
2022-11-23T11:59:57.723Z,20.50
2022-11-23T12:02:33.815Z,21.60
2022-11-23T12:05:31.432Z,22.00
2022-11-23T12:08:16.885Z,22.10
2022-11-23T12:10:54.143Z,22.20
2022-11-23T12:13:37.069Z,23.00
2022-11-23T12:16:27.802Z,23.60
2022-11-23T12:18:57.555Z,23.50
2022-11-23T12:21:37.073Z,23.20
2022-11-23T12:24:24.983Z,22.80
2022-11-23T12:27:02.048Z,23.40
2022-11-23T12:29:46.833Z,24.20
2022-11-23T12:32:40.980Z,24.30
2022-11-23T12:35:22.616Z,23.20
2022-11-23T12:38:26.420Z,22.90
2022-11-23T12:41:08.486Z,22.50
2022-11-23T12:43:41.192Z,22.20
2022-11-23T12:46:32.153Z,22.40
2022-11-23T12:49:16.247Z,22.80
2022-11-23T12:52:04.311Z,22.30
2022-11-23T12:54:55.016Z,21.90
2022-11-23T12:57:38.576Z,21.00
2022-11-23T13:00:17.496Z,21.20
2022-11-23T13:02:59.175Z,22.20
2022-11-23T13:05:40.818Z,22.10
2022-11-23T13:08:22.566Z,22.20
2022-11-23T13:11:11.407Z,22.10
2022-11-23T13:14:04.060Z,21.80
2022-11-23T13:16:58.417Z,21.50
2022-11-23T13:19:37.433Z,21.40
2022-11-23T13:22:10.123Z,21.40
2022-11-23T13:25:15.688Z,21.40
2022-11-23T13:27:45.188Z,21.50
2022-11-23T13:30:35.637Z,21.50
2022-11-23T13:33:26.991Z,22.50
2022-11-23T13:36:02.112Z,22.80
2022-11-23T13:38:46.543Z,22.40
2022-11-23T13:41:33.465Z,22.30
2022-11-23T13:44:18.508Z,21.80
2022-11-23T13:47:17.139Z,21.70
2022-11-23T13:49:47.853Z,21.70
2022-11-23T13:52:28.880Z,21.90
2022-11-23T13:55:10.579Z,21.20
2022-11-23T13:57:39.767Z,19.80
2022-11-23T14:00:46.592Z,19.10
2022-11-23T14:03:49.925Z,18.40
2022-11-23T14:06:51.250Z,17.10
2022-11-23T14:09:30.507Z,16.80
2022-11-23T14:12:18.775Z,16.50
2022-11-23T14:15:06.278Z,16.00
2022-11-23T14:17:51.394Z,15.60
2022-11-23T14:20:23.859Z,15.10
2022-11-23T14:23:18.033Z,14.60
2022-11-23T14:25:54.344Z,14.10
2022-11-23T14:28:39.628Z,13.50
2022-11-23T14:31:36.632Z,13.20
2022-11-23T14:34:08.736Z,12.90
2022-11-23T14:36:43.315Z,12.70
2022-11-23T14:39:48.645Z,12.60
2022-11-23T14:42:18.627Z,12.50
2022-11-23T14:44:45.879Z,12.40
2022-11-23T14:47:12.668Z,12.40
2022-11-23T14:49:51.146Z,12.30
2022-11-23T14:52:33.278Z,12.20
2022-11-23T14:55:06.267Z,12.10
2022-11-23T14:57:45.277Z,12.10
2022-11-23T15:00:24.790Z,11.90
2022-11-23T15:02:52.911Z,11.80
2022-11-23T15:05:28.614Z,11.70
2022-11-23T15:08:01.183Z,11.70
2022-11-23T15:10:37.516Z,11.60
2022-11-23T15:13:23.835Z,11.50
2022-11-23T15:15:56.142Z,11.40
2022-11-23T15:18:34.519Z,11.30
2022-11-23T15:21:04.142Z,11.20
2022-11-23T15:23:48.587Z,11.10
2022-11-23T15:26:47.464Z,11.10
2022-11-23T15:29:52.371Z,11.10
2022-11-23T15:32:31.413Z,11.00
2022-11-23T15:35:08.105Z,11.00
2022-11-23T15:37:44.040Z,10.90
2022-11-23T15:40:15.979Z,10.90
2022-11-23T15:42:44.749Z,10.80
2022-11-23T15:45:48.375Z,10.70
2022-11-23T15:48:18.158Z,10.60
2022-11-23T15:50:56.646Z,10.70
2022-11-23T15:53:29.670Z,10.60
2022-11-23T15:56:06.270Z,10.60
2022-11-23T15:58:35.098Z,10.60
2022-11-23T16:01:07.410Z,10.60
2022-11-23T16:04:01.060Z,10.50
2022-11-23T16:06:42.602Z,10.30
2022-11-23T16:09:51.071Z,10.10
2022-11-23T16:12:25.943Z,10.00
2022-11-23T16:14:54.686Z,9.90
2022-11-23T16:17:25.989Z,9.80
2022-11-23T16:20:04.915Z,9.70
2022-11-23T16:22:38.288Z,9.60
2022-11-23T16:25:28.645Z,9.50
2022-11-23T16:28:01.136Z,9.50
2022-11-23T16:30:37.794Z,9.40
2022-11-23T16:33:07.688Z,9.30
2022-11-23T16:35:36.798Z,9.20
2022-11-23T16:38:03.457Z,9.20
2022-11-23T16:40:31.243Z,9.10
2022-11-23T16:42:57.943Z,9.10
2022-11-23T16:45:24.724Z,9.10
2022-11-23T16:48:01.855Z,9.00
2022-11-23T16:50:30.760Z,9.00
2022-11-23T16:53:01.026Z,8.90
2022-11-23T16:55:27.855Z,8.90
2022-11-23T16:57:54.568Z,8.80
2022-11-23T17:00:28.526Z,8.80
2022-11-23T17:02:57.642Z,8.70
2022-11-23T17:05:26.784Z,8.70
2022-11-23T17:07:53.456Z,8.60
2022-11-23T17:10:20.352Z,8.60
2022-11-23T17:12:53.639Z,8.60
2022-11-23T17:15:22.192Z,8.50
2022-11-23T17:17:49.759Z,8.40
2022-11-23T17:20:18.069Z,8.40
2022-11-23T17:22:44.911Z,8.40
2022-11-23T17:25:14.994Z,8.40
2022-11-23T17:27:43.628Z,8.40
2022-11-23T17:30:15.333Z,8.30
2022-11-23T17:32:44.299Z,8.30
2022-11-23T17:35:11.030Z,8.30
2022-11-23T17:37:40.060Z,8.20
2022-11-23T17:40:15.101Z,8.20
2022-11-23T17:42:41.837Z,8.20
2022-11-23T17:45:09.124Z,8.10
2022-11-23T17:47:39.417Z,8.10
2022-11-23T17:50:09.658Z,8.10
2022-11-23T17:52:44.230Z,8.00
2022-11-23T17:55:15.094Z,8.00
2022-11-23T17:57:49.662Z,8.00
2022-11-23T18:00:22.069Z,7.90
2022-11-23T18:02:49.103Z,7.90
2022-11-23T18:05:22.099Z,7.90
2022-11-23T18:07:50.583Z,7.80
2022-11-23T18:10:17.899Z,7.80
2022-11-23T18:12:45.110Z,7.70
2022-11-23T18:15:12.323Z,7.70
2022-11-23T18:17:41.686Z,7.70
2022-11-23T18:20:13.428Z,7.70
2022-11-23T18:22:42.635Z,7.60
2022-11-23T18:25:09.806Z,7.70
2022-11-23T18:27:36.537Z,7.60
2022-11-23T18:30:03.690Z,7.60
2022-11-23T18:32:30.336Z,7.50
2022-11-23T18:34:57.014Z,7.60
2022-11-23T18:37:23.673Z,7.50
2022-11-23T18:39:50.399Z,7.50
2022-11-23T18:42:17.151Z,7.50
2022-11-23T18:44:43.789Z,7.60
2022-11-23T18:47:10.448Z,7.50
2022-11-23T18:49:37.131Z,7.60
2022-11-23T18:52:03.866Z,7.50
2022-11-23T18:54:32.788Z,7.50
2022-11-23T18:56:59.449Z,7.50
2022-11-23T18:59:56.757Z,7.60
2022-11-23T19:02:18.072Z,7.60
2022-11-23T19:04:44.746Z,7.60
2022-11-23T19:07:11.559Z,7.60
2022-11-23T19:09:38.314Z,7.60
2022-11-23T19:12:10.022Z,7.70
2022-11-23T19:14:36.751Z,7.70
2022-11-23T19:17:03.484Z,7.70
2022-11-23T19:19:30.268Z,7.70
2022-11-23T19:21:58.839Z,7.80
2022-11-23T19:24:25.687Z,7.90
2022-11-23T19:26:52.353Z,8.00
2022-11-23T19:29:23.626Z,8.10
2022-11-23T19:31:54.466Z,8.30
2022-11-23T19:34:25.702Z,8.40
2022-11-23T19:36:54.596Z,8.50
2022-11-23T19:39:21.236Z,8.60
2022-11-23T19:41:47.975Z,8.70
2022-11-23T19:44:15.158Z,8.80
2022-11-23T19:46:41.903Z,8.90
2022-11-23T19:49:08.814Z,9.00
2022-11-23T19:51:35.660Z,9.00
2022-11-23T19:54:02.446Z,9.10
2022-11-23T19:56:29.773Z,9.10
2022-11-23T19:58:58.829Z,9.10
2022-11-23T20:01:28.057Z,9.20
2022-11-23T20:03:57.086Z,9.20
2022-11-23T20:06:28.413Z,9.20
2022-11-23T20:09:07.050Z,9.20
2022-11-23T20:11:37.469Z,9.20
2022-11-23T20:14:07.048Z,9.20
2022-11-23T20:16:33.872Z,9.20
2022-11-23T20:19:03.487Z,9.20
2022-11-23T20:21:31.395Z,9.20
2022-11-23T20:24:04.888Z,9.20
2022-11-23T20:26:33.038Z,9.20
2022-11-23T20:28:59.690Z,9.20
2022-11-23T20:31:28.922Z,9.20
2022-11-23T20:33:58.996Z,9.20
2022-11-23T20:36:28.222Z,9.20
2022-11-23T20:38:55.874Z,9.20
2022-11-23T20:41:28.872Z,9.20
2022-11-23T20:44:07.208Z,9.20
2022-11-23T20:49:23.507Z,9.20
2022-11-23T20:51:50.694Z,9.20
2022-11-23T20:54:17.294Z,9.20
2022-11-23T20:56:43.937Z,9.10
2022-11-23T20:59:12.223Z,9.20
2022-11-23T21:01:40.742Z,9.10
2022-11-23T21:04:08.939Z,9.10
2022-11-23T21:06:39.270Z,9.20
2022-11-23T21:09:11.201Z,9.20
2022-11-23T21:11:56.537Z,9.20
2022-11-23T21:14:27.416Z,9.20
2022-11-23T21:16:59.222Z,9.20
2022-11-23T21:19:34.296Z,9.20
2022-11-23T21:22:06.312Z,9.20
2022-11-23T21:24:37.988Z,9.20
2022-11-23T21:27:06.215Z,9.20
2022-11-23T21:29:35.575Z,9.20
2022-11-23T21:32:02.237Z,9.30
2022-11-23T21:34:30.344Z,9.20
2022-11-23T21:37:01.004Z,9.30
2022-11-23T21:39:30.990Z,9.30
2022-11-23T21:41:57.770Z,9.40
2022-11-23T21:44:28.771Z,9.40
2022-11-23T21:46:55.711Z,9.50
2022-11-23T21:49:22.502Z,9.40
2022-11-23T21:51:49.140Z,9.40
2022-11-23T21:54:16.279Z,9.30
2022-11-23T21:56:44.924Z,9.20
2022-11-23T21:59:14.428Z,9.20
2022-11-23T22:01:44.333Z,9.20
2022-11-23T22:04:13.225Z,9.20
2022-11-23T22:06:41.893Z,9.20
2022-11-23T22:09:09.805Z,9.20
2022-11-23T22:11:41.235Z,9.20
2022-11-23T22:14:13.696Z,9.20
2022-11-23T22:16:46.609Z,9.30
2022-11-23T22:19:14.964Z,9.20
2022-11-23T22:21:45.202Z,9.10
2022-11-23T22:24:16.904Z,9.10
2022-11-23T22:26:46.392Z,9.00
2022-11-23T22:29:15.846Z,9.00
2022-11-23T22:31:43.790Z,9.00
2022-11-23T22:34:14.660Z,9.00
2022-11-23T22:36:41.601Z,9.00
2022-11-23T22:39:11.548Z,9.00
2022-11-23T22:41:38.779Z,9.00
2022-11-23T22:44:09.800Z,9.00
2022-11-23T22:46:37.464Z,9.10
2022-11-23T22:49:04.436Z,9.10
2022-11-23T22:51:31.055Z,9.10
2022-11-23T22:53:59.502Z,9.10
2022-11-23T22:56:30.289Z,9.10
2022-11-23T22:58:57.015Z,9.10
2022-11-23T23:01:26.714Z,9.10
2022-11-23T23:03:58.023Z,9.10
2022-11-23T23:06:27.237Z,9.10
2022-11-23T23:08:58.038Z,9.10
2022-11-23T23:11:27.101Z,9.10
2022-11-23T23:13:56.255Z,9.10
2022-11-23T23:16:26.078Z,9.10
2022-11-23T23:18:57.515Z,9.10
2022-11-23T23:21:24.937Z,9.00
2022-11-23T23:23:54.138Z,9.10
2022-11-23T23:26:24.292Z,9.10
2022-11-23T23:28:55.884Z,9.10
2022-11-23T23:31:23.190Z,9.00
2022-11-23T23:33:49.974Z,9.00
2022-11-23T23:36:19.741Z,9.10
2022-11-23T23:38:46.663Z,9.00
2022-11-23T23:41:16.506Z,9.00
2022-11-23T23:43:43.359Z,9.00
2022-11-23T23:46:12.175Z,9.00
2022-11-23T23:48:40.086Z,9.00
2022-11-23T23:51:08.299Z,9.00
2022-11-23T23:53:36.225Z,9.00
2022-11-23T23:56:08.037Z,9.00
2022-11-23T23:58:37.288Z,9.00
